createdAt,value
2018-09-12T00:00:20.565Z,18.28
2018-09-12T00:02:50.257Z,18.04
2018-09-12T00:05:20.053Z,17.77
2018-09-12T00:07:49.937Z,17.54
2018-09-12T00:10:19.697Z,17.36
2018-09-12T00:12:49.420Z,17.20
2018-09-12T00:15:19.157Z,17.07
2018-09-12T00:17:49.006Z,17.04
2018-09-12T00:20:18.722Z,16.93
2018-09-12T00:22:48.408Z,16.83
2018-09-12T00:25:18.143Z,16.69
2018-09-12T00:27:47.998Z,16.60
2018-09-12T00:30:17.720Z,16.57
2018-09-12T00:32:47.397Z,16.52
2018-09-12T00:35:17.065Z,16.42
2018-09-12T00:37:46.899Z,16.40
2018-09-12T00:40:16.597Z,16.27
2018-09-12T00:42:46.228Z,16.23
2018-09-12T00:45:15.959Z,16.18
2018-09-12T00:47:45.627Z,16.04
2018-09-12T00:50:15.474Z,15.97
2018-09-12T00:52:45.534Z,15.92
2018-09-12T00:55:15.268Z,15.83
2018-09-12T00:57:44.982Z,15.78
2018-09-12T01:00:15.017Z,15.77
2018-09-12T01:02:44.880Z,15.75
2018-09-12T01:05:14.717Z,15.70
2018-09-12T01:07:44.417Z,15.63
2018-09-12T01:10:14.105Z,15.60
2018-09-12T01:12:43.763Z,15.62
2018-09-12T01:15:13.500Z,15.57
2018-09-12T01:17:43.185Z,15.53
2018-09-12T01:20:13.086Z,15.48
2018-09-12T01:22:42.768Z,15.44
2018-09-12T01:25:12.515Z,15.41
2018-09-12T01:27:42.372Z,15.38
2018-09-12T01:30:16.137Z,15.38
2018-09-12T01:32:45.767Z,15.35
2018-09-12T01:35:15.476Z,15.49
2018-09-12T01:37:45.294Z,15.50
2018-09-12T01:40:15.374Z,15.52
2018-09-12T01:42:45.467Z,15.54
2018-09-12T01:45:17.403Z,15.54
2018-09-12T01:47:47.405Z,15.49
2018-09-12T01:50:17.197Z,15.50
2018-09-12T01:52:48.110Z,15.46
2018-09-12T01:55:17.950Z,15.48
2018-09-12T01:57:47.674Z,15.47
2018-09-12T02:00:19.049Z,15.48
2018-09-12T02:02:49.274Z,15.57
2018-09-12T02:05:19.000Z,15.53
2018-09-12T02:07:48.664Z,15.59
2018-09-12T02:10:18.384Z,15.50
2018-09-12T02:12:48.084Z,15.43
2018-09-12T02:15:17.893Z,15.34
2018-09-12T02:17:47.820Z,15.30
2018-09-12T02:20:17.528Z,15.28
2018-09-12T02:22:47.250Z,15.21
2018-09-12T02:25:17.017Z,15.08
2018-09-12T02:27:46.711Z,14.98
2018-09-12T02:30:16.512Z,15.08
2018-09-12T02:32:46.221Z,14.97
2018-09-12T02:35:15.883Z,14.87
2018-09-12T02:37:45.582Z,14.75
2018-09-12T02:40:15.260Z,14.75
2018-09-12T02:42:45.188Z,14.75
2018-09-12T02:45:14.837Z,14.68
2018-09-12T02:47:44.666Z,14.61
2018-09-12T02:50:14.648Z,14.70
2018-09-12T02:52:44.325Z,14.70
2018-09-12T02:55:14.376Z,14.61
2018-09-12T02:57:44.078Z,14.73
2018-09-12T03:00:13.780Z,14.81
2018-09-12T03:02:43.475Z,14.87
2018-09-12T03:05:13.253Z,14.92
2018-09-12T03:07:42.997Z,14.95
2018-09-12T03:10:12.740Z,14.93
2018-09-12T03:12:42.592Z,14.96
2018-09-12T03:15:12.225Z,14.83
2018-09-12T03:17:41.919Z,14.67
2018-09-12T03:20:11.657Z,14.54
2018-09-12T03:22:41.534Z,14.43
2018-09-12T03:25:11.201Z,14.37
2018-09-12T03:27:41.033Z,14.32
2018-09-12T03:30:10.389Z,14.27
2018-09-12T03:32:40.143Z,14.19
2018-09-12T03:35:09.878Z,14.18
2018-09-12T03:37:39.652Z,14.19
2018-09-12T03:40:09.309Z,14.13
2018-09-12T03:42:39.087Z,14.05
2018-09-12T03:45:08.767Z,14.00
2018-09-12T03:47:38.517Z,13.95
2018-09-12T03:50:08.296Z,13.88
2018-09-12T03:52:39.266Z,13.94
2018-09-12T03:55:11.128Z,13.89
2018-09-12T03:57:42.931Z,13.90
2018-09-12T04:00:13.449Z,13.96
2018-09-12T04:02:43.234Z,14.26
2018-09-12T04:05:12.925Z,14.51
2018-09-12T04:07:42.717Z,14.67
2018-09-12T04:10:12.562Z,14.67
2018-09-12T04:12:42.221Z,14.59
2018-09-12T04:15:11.902Z,14.62
2018-09-12T04:17:41.647Z,14.60
2018-09-12T04:20:11.334Z,14.55
2018-09-12T04:22:41.147Z,14.48
2018-09-12T04:25:10.940Z,14.54
2018-09-12T04:27:40.591Z,14.42
2018-09-12T04:30:10.426Z,14.37
2018-09-12T04:32:40.177Z,14.31
2018-09-12T04:35:10.127Z,14.23
2018-09-12T04:37:39.927Z,14.25
2018-09-12T04:40:09.906Z,14.14
2018-09-12T04:42:39.550Z,14.07
2018-09-12T04:45:09.345Z,14.05
2018-09-12T04:47:39.090Z,14.03
2018-09-12T04:50:08.945Z,14.08
2018-09-12T04:52:38.676Z,13.99
2018-09-12T04:55:09.717Z,14.02
2018-09-12T04:57:39.493Z,14.01
2018-09-12T05:00:09.208Z,14.01
2018-09-12T05:02:39.045Z,14.05
2018-09-12T05:05:08.764Z,14.08
2018-09-12T05:07:38.477Z,14.07
2018-09-12T05:10:08.237Z,14.05
2018-09-12T05:12:37.933Z,14.05
2018-09-12T05:15:07.843Z,14.06
2018-09-12T05:17:37.634Z,14.10
2018-09-12T05:20:07.553Z,14.13
2018-09-12T05:22:37.465Z,14.21
2018-09-12T05:25:07.324Z,14.22
2018-09-12T05:27:37.195Z,14.27
2018-09-12T05:30:07.536Z,14.29
2018-09-12T05:32:37.288Z,14.36
2018-09-12T05:35:07.093Z,14.44
2018-09-12T05:37:36.865Z,14.52
2018-09-12T05:40:07.433Z,14.61
2018-09-12T05:42:37.236Z,14.69
2018-09-12T05:45:07.012Z,14.78
2018-09-12T05:47:36.657Z,14.86
2018-09-12T05:50:06.586Z,14.93
2018-09-12T05:52:36.306Z,15.22
2018-09-12T05:55:06.211Z,15.58
2018-09-12T05:57:35.969Z,15.94
2018-09-12T06:00:06.338Z,16.31
2018-09-12T06:02:36.022Z,16.58
2018-09-12T06:05:06.233Z,16.79
2018-09-12T06:07:35.950Z,17.05
2018-09-12T06:10:06.053Z,17.25
2018-09-12T06:12:35.820Z,17.39
2018-09-12T06:15:05.756Z,17.70
2018-09-12T06:17:35.546Z,18.04
2018-09-12T06:20:05.333Z,18.24
2018-09-12T06:22:35.309Z,18.40
2018-09-12T06:25:05.009Z,18.53
2018-09-12T06:27:34.818Z,18.52
2018-09-12T06:30:04.604Z,18.50
2018-09-12T06:32:34.533Z,18.54
2018-09-12T06:35:04.509Z,18.51
2018-09-12T06:37:34.352Z,18.59
2018-09-12T06:40:04.081Z,18.63
2018-09-12T06:42:33.954Z,18.64
2018-09-12T06:45:04.051Z,18.77
2018-09-12T06:47:33.809Z,19.00
2018-09-12T06:50:03.718Z,19.46
2018-09-12T06:52:33.454Z,19.67
2018-09-12T06:55:03.370Z,19.95
2018-09-12T06:57:33.069Z,20.35
2018-09-12T07:00:02.745Z,20.53
2018-09-12T07:02:32.577Z,20.55
2018-09-12T07:05:02.382Z,20.33
2018-09-12T07:07:32.252Z,20.15
2018-09-12T07:10:01.972Z,20.08
2018-09-12T07:12:32.261Z,20.06
2018-09-12T07:15:02.178Z,20.21
2018-09-12T07:17:31.958Z,20.46
2018-09-12T07:20:01.809Z,20.52
2018-09-12T07:22:31.489Z,20.42
2018-09-12T07:25:01.251Z,20.55
2018-09-12T07:27:31.004Z,20.41
2018-09-12T07:30:00.734Z,20.51
2018-09-12T07:32:30.409Z,20.45
2018-09-12T07:35:00.099Z,20.60
2018-09-12T07:37:29.808Z,20.58
2018-09-12T07:39:59.629Z,20.84
2018-09-12T07:42:29.311Z,20.71
2018-09-12T07:44:58.967Z,20.86
2018-09-12T07:47:28.729Z,21.49
2018-09-12T07:49:58.424Z,21.93
2018-09-12T07:52:28.113Z,22.98
2018-09-12T07:54:58.033Z,22.94
2018-09-12T07:57:27.731Z,22.98
2018-09-12T07:59:57.588Z,23.58
2018-09-12T08:02:27.192Z,24.26
2018-09-12T08:04:57.192Z,24.62
2018-09-12T08:07:27.093Z,25.82
2018-09-12T08:09:56.829Z,26.36
2018-09-12T08:12:26.624Z,26.89
2018-09-12T08:14:56.453Z,25.78
2018-09-12T08:17:26.128Z,26.39
2018-09-12T08:19:55.824Z,26.81
2018-09-12T08:22:25.567Z,27.45
2018-09-12T08:24:55.379Z,28.04
2018-09-12T08:27:25.073Z,28.89
2018-09-12T08:29:54.965Z,28.93
2018-09-12T08:32:24.762Z,29.98
2018-09-12T08:34:54.569Z,29.91
2018-09-12T08:37:24.322Z,29.91
2018-09-12T08:39:53.973Z,30.68
2018-09-12T08:42:23.801Z,30.92
2018-09-12T08:44:53.592Z,31.27
2018-09-12T08:47:23.389Z,30.53
2018-09-12T08:49:53.237Z,31.32
2018-09-12T08:52:23.059Z,31.65
2018-09-12T08:54:53.104Z,31.91
2018-09-12T08:57:22.982Z,30.91
2018-09-12T08:59:52.702Z,31.37
2018-09-12T09:02:22.785Z,32.44
2018-09-12T09:04:52.542Z,31.48
2018-09-12T09:07:22.431Z,32.52
2018-09-12T09:09:53.088Z,32.52
2018-09-12T09:12:22.887Z,32.29
2018-09-12T09:14:52.614Z,31.89
2018-09-12T09:17:22.365Z,31.78
2018-09-12T09:19:52.061Z,31.95
2018-09-12T09:22:21.733Z,32.26
2018-09-12T09:24:51.438Z,32.60
2018-09-12T09:27:21.081Z,31.75
2018-09-12T09:29:51.054Z,33.31
2018-09-12T09:32:20.761Z,33.47
2018-09-12T09:34:50.447Z,33.57
2018-09-12T09:37:20.174Z,33.24
2018-09-12T09:39:49.884Z,33.58
2018-09-12T09:42:19.622Z,33.22
2018-09-12T09:44:49.353Z,33.39
2018-09-12T09:47:19.044Z,33.85
2018-09-12T09:49:48.785Z,34.07
2018-09-12T09:52:18.446Z,33.55
2018-09-12T09:54:48.253Z,32.77
2018-09-12T09:57:17.971Z,31.88
2018-09-12T09:59:47.764Z,32.67
2018-09-12T10:02:20.624Z,32.63
2018-09-12T10:04:55.321Z,32.58
2018-09-12T10:07:30.220Z,33.37
2018-09-12T10:10:03.872Z,32.12
2018-09-12T10:12:34.686Z,32.28
2018-09-12T10:15:05.610Z,32.81
2018-09-12T10:17:36.286Z,32.37
2018-09-12T10:20:06.189Z,33.34
2018-09-12T10:22:35.813Z,32.97
2018-09-12T10:25:05.690Z,32.04
2018-09-12T10:27:35.370Z,32.80
2018-09-12T10:30:06.779Z,32.13
2018-09-12T10:32:36.486Z,32.42
2018-09-12T10:35:06.212Z,33.57
2018-09-12T10:37:36.316Z,31.86
2018-09-12T10:40:06.197Z,30.30
2018-09-12T10:42:36.030Z,29.43
2018-09-12T10:45:06.542Z,30.16
2018-09-12T10:47:36.305Z,29.68
2018-09-12T10:50:06.209Z,28.85
2018-09-12T10:52:36.061Z,28.09
2018-09-12T10:55:05.812Z,27.82
2018-09-12T10:57:35.528Z,27.52
2018-09-12T11:00:06.181Z,26.84
2018-09-12T11:02:36.136Z,27.34
2018-09-12T11:05:06.165Z,26.59
2018-09-12T11:07:35.920Z,26.72
2018-09-12T11:10:05.785Z,26.43
2018-09-12T11:12:35.444Z,26.75
2018-09-12T11:15:05.754Z,28.16
2018-09-12T11:17:35.482Z,27.98
2018-09-12T11:20:05.390Z,29.81
2018-09-12T11:22:35.096Z,30.31
2018-09-12T11:25:04.897Z,31.83
2018-09-12T11:27:34.666Z,31.82
2018-09-12T11:30:04.430Z,31.55
2018-09-12T11:32:34.164Z,30.59
2018-09-12T11:35:03.944Z,30.89
2018-09-12T11:37:33.810Z,31.11
2018-09-12T11:40:03.615Z,31.65
2018-09-12T11:42:33.300Z,32.43
2018-09-12T11:45:02.921Z,31.67
2018-09-12T11:47:32.635Z,32.41
2018-09-12T11:50:02.503Z,32.71
2018-09-12T11:52:32.693Z,32.51
2018-09-12T11:55:02.447Z,31.94
2018-09-12T11:57:32.620Z,31.98
2018-09-12T12:00:02.340Z,31.62
2018-09-12T12:02:32.223Z,30.91
2018-09-12T12:05:01.916Z,31.07
2018-09-12T12:07:31.561Z,31.04
2018-09-12T12:10:01.331Z,31.67
2018-09-12T12:12:31.681Z,31.94
2018-09-12T12:15:01.696Z,32.30
2018-09-12T12:17:31.538Z,30.80
2018-09-12T12:20:01.336Z,29.30
2018-09-12T12:22:31.190Z,30.17
2018-09-12T12:25:01.030Z,30.02
2018-09-12T12:27:31.056Z,29.62
2018-09-12T12:30:00.785Z,28.63
2018-09-12T12:32:30.616Z,29.13
2018-09-12T12:35:00.829Z,29.59
2018-09-12T12:37:30.597Z,29.49
2018-09-12T12:40:00.310Z,30.12
2018-09-12T12:42:30.216Z,30.00
2018-09-12T12:45:00.123Z,29.98
2018-09-12T12:47:29.945Z,29.30
2018-09-12T12:49:59.777Z,29.44
2018-09-12T12:52:29.708Z,29.16
2018-09-12T12:54:59.726Z,29.16
2018-09-12T12:57:29.629Z,29.03
2018-09-12T12:59:59.366Z,28.72
2018-09-12T13:02:29.110Z,29.21
2018-09-12T13:04:58.809Z,29.60
2018-09-12T13:07:29.143Z,29.96
2018-09-12T13:09:59.076Z,30.17
2018-09-12T13:12:29.508Z,30.40
2018-09-12T13:14:59.502Z,30.70
2018-09-12T13:17:29.298Z,30.44
2018-09-12T13:19:59.017Z,30.56
2018-09-12T13:22:28.748Z,30.74
2018-09-12T13:24:58.458Z,30.29
2018-09-12T13:27:28.292Z,30.13
2018-09-12T13:29:58.206Z,30.70
2018-09-12T13:32:28.305Z,30.61
2018-09-12T13:34:58.174Z,29.31
2018-09-12T13:37:27.921Z,28.72
2018-09-12T13:39:58.013Z,27.90
2018-09-12T13:42:29.043Z,28.27
2018-09-12T13:44:58.964Z,29.25
2018-09-12T13:47:28.803Z,29.88
2018-09-12T13:49:59.900Z,30.11
2018-09-12T13:52:30.463Z,30.02
2018-09-12T13:55:00.295Z,30.07
2018-09-12T13:57:30.291Z,30.46
2018-09-12T14:00:01.554Z,30.74
2018-09-12T14:02:33.767Z,31.01
2018-09-12T14:05:06.749Z,31.07
2018-09-12T14:07:36.544Z,31.63
2018-09-12T14:10:06.471Z,31.01
2018-09-12T14:12:36.323Z,30.75
2018-09-12T14:15:06.127Z,30.26
2018-09-12T14:17:35.869Z,30.01
2018-09-12T14:20:05.685Z,29.45
2018-09-12T14:22:36.222Z,29.39
2018-09-12T14:25:05.998Z,28.53
2018-09-12T14:27:35.884Z,28.44
2018-09-12T14:30:05.886Z,28.30
2018-09-12T14:32:36.208Z,28.21
2018-09-12T14:35:06.061Z,27.57
2018-09-12T14:37:36.146Z,27.36
2018-09-12T14:40:06.585Z,26.86
2018-09-12T14:42:36.753Z,27.22
2018-09-12T14:45:07.499Z,27.03
2018-09-12T14:47:37.220Z,26.44
2018-09-12T14:50:07.467Z,25.50
2018-09-12T14:52:37.468Z,25.36
2018-09-12T14:55:07.267Z,24.75
2018-09-12T14:57:37.080Z,24.29
2018-09-12T15:00:07.139Z,24.45
2018-09-12T15:02:37.813Z,24.54
2018-09-12T15:05:08.786Z,24.72
2018-09-12T15:07:38.504Z,24.90
2018-09-12T15:10:08.580Z,24.60
2018-09-12T15:12:38.390Z,24.45
2018-09-12T15:15:08.349Z,24.46
2018-09-12T15:17:38.029Z,24.26
2018-09-12T15:20:07.953Z,23.90
2018-09-12T15:22:37.981Z,23.28
2018-09-12T15:25:07.683Z,23.55
2018-09-12T15:27:37.535Z,23.51
2018-09-12T15:30:07.480Z,23.65
2018-09-12T15:32:37.252Z,23.86
2018-09-12T15:35:07.075Z,24.27
2018-09-12T15:37:36.722Z,24.38
2018-09-12T15:40:06.754Z,24.05
2018-09-12T15:42:36.588Z,23.62
2018-09-12T15:45:06.295Z,23.20
2018-09-12T15:47:36.067Z,22.66
2018-09-12T15:50:06.266Z,22.33
2018-09-12T15:52:35.989Z,22.27
2018-09-12T15:55:05.827Z,22.00
2018-09-12T15:57:35.505Z,21.55
2018-09-12T16:00:05.775Z,21.53
2018-09-12T16:02:35.571Z,21.47
2018-09-12T16:05:05.719Z,21.48
2018-09-12T16:07:35.413Z,21.66
2018-09-12T16:10:05.291Z,21.82
2018-09-12T16:12:35.061Z,21.38
2018-09-12T16:15:05.038Z,20.98
2018-09-12T16:17:34.775Z,21.09
2018-09-12T16:20:04.706Z,20.64
2018-09-12T16:22:34.457Z,20.71
2018-09-12T16:25:04.241Z,20.61
2018-09-12T16:27:35.069Z,20.20
2018-09-12T16:30:04.865Z,20.13
2018-09-12T16:32:34.665Z,20.18
2018-09-12T16:35:04.425Z,20.06
2018-09-12T16:37:34.409Z,20.12
2018-09-12T16:40:04.218Z,19.98
2018-09-12T16:42:33.849Z,19.90
2018-09-12T16:45:03.537Z,20.02
2018-09-12T16:47:33.449Z,20.20
2018-09-12T16:50:03.233Z,19.96
2018-09-12T16:52:33.352Z,19.75
2018-09-12T16:55:03.093Z,19.04
2018-09-12T16:57:33.012Z,18.96
2018-09-12T17:00:02.929Z,18.88
2018-09-12T17:02:32.645Z,18.70
2018-09-12T17:05:02.447Z,18.62
2018-09-12T17:07:32.161Z,18.43
2018-09-12T17:10:01.847Z,18.33
2018-09-12T17:12:31.537Z,18.40
2018-09-12T17:15:01.228Z,18.25
2018-09-12T17:17:31.559Z,18.34
2018-09-12T17:20:01.324Z,18.29
2018-09-12T17:22:30.981Z,18.11
2018-09-12T17:25:00.779Z,17.97
2018-09-12T17:27:31.834Z,17.97
2018-09-12T17:30:02.463Z,18.15
2018-09-12T17:32:32.431Z,17.92
2018-09-12T17:35:01.968Z,17.82
2018-09-12T17:37:31.958Z,17.81
2018-09-12T17:40:01.858Z,17.81
2018-09-12T17:42:32.474Z,17.82
2018-09-12T17:45:02.244Z,17.89
2018-09-12T17:47:32.018Z,17.73
2018-09-12T17:50:01.766Z,17.86
2018-09-12T17:52:32.450Z,17.71
2018-09-12T17:55:02.232Z,17.72
2018-09-12T17:57:31.937Z,17.42
2018-09-12T18:00:01.766Z,17.39
2018-09-12T18:02:31.622Z,17.48
2018-09-12T18:05:01.425Z,17.42
2018-09-12T18:07:31.245Z,17.47
2018-09-12T18:10:01.809Z,17.32
2018-09-12T18:12:31.537Z,17.14
2018-09-12T18:15:01.385Z,17.23
2018-09-12T18:17:32.167Z,17.18
2018-09-12T18:20:01.953Z,16.99
2018-09-12T18:22:31.707Z,16.86
2018-09-12T18:25:01.566Z,16.75
2018-09-12T18:27:31.375Z,16.70
2018-09-12T18:30:01.239Z,16.66
2018-09-12T18:32:31.145Z,16.74
2018-09-12T18:35:00.884Z,16.66
2018-09-12T18:37:31.457Z,16.55
2018-09-12T18:40:01.153Z,16.48
2018-09-12T18:42:30.918Z,16.48
2018-09-12T18:45:01.813Z,16.37
2018-09-12T18:47:32.736Z,16.39
2018-09-12T18:50:02.565Z,16.45
2018-09-12T18:52:32.574Z,16.44
2018-09-12T18:55:02.398Z,16.45
2018-09-12T18:57:32.225Z,16.48
2018-09-12T19:00:02.291Z,16.40
2018-09-12T19:02:32.598Z,16.22
2018-09-12T19:05:02.622Z,16.35
2018-09-12T19:07:32.389Z,16.14
2018-09-12T19:10:03.939Z,16.30
2018-09-12T19:12:34.337Z,16.23
2018-09-12T19:15:04.333Z,16.27
2018-09-12T19:17:34.334Z,16.16
2018-09-12T19:20:04.370Z,16.02
2018-09-12T19:22:34.209Z,16.06
2018-09-12T19:25:04.249Z,16.17
2018-09-12T19:27:34.219Z,16.12
2018-09-12T19:30:04.221Z,16.23
2018-09-12T19:32:34.110Z,16.31
2018-09-12T19:35:03.897Z,16.40
2018-09-12T19:37:34.695Z,16.30
2018-09-12T19:40:05.245Z,16.13
2018-09-12T19:42:35.132Z,16.14
2018-09-12T19:45:04.911Z,16.14
2018-09-12T19:47:34.773Z,16.34
2018-09-12T19:50:04.841Z,16.43
2018-09-12T19:52:34.849Z,16.42
2018-09-12T19:55:05.853Z,16.40
2018-09-12T19:57:35.779Z,16.55
2018-09-12T20:00:10.301Z,16.61
2018-09-12T20:02:40.121Z,16.58
2018-09-12T20:05:10.034Z,16.62
2018-09-12T20:07:40.221Z,16.76
2018-09-12T20:10:10.837Z,16.92
2018-09-12T20:12:41.653Z,16.95
2018-09-12T20:15:11.805Z,16.99
2018-09-12T20:17:41.591Z,16.96
2018-09-12T20:22:55.048Z,16.86
2018-09-12T20:25:25.015Z,16.72
2018-09-12T20:27:54.741Z,16.84
2018-09-12T20:30:24.503Z,16.79
2018-09-12T20:32:54.349Z,16.82
2018-09-12T20:35:24.391Z,16.77
2018-09-12T20:37:54.217Z,16.65
2018-09-12T20:40:23.963Z,16.71
2018-09-12T20:42:53.811Z,16.66
2018-09-12T20:45:23.883Z,16.57
2018-09-12T20:47:53.778Z,16.64
2018-09-12T20:50:23.581Z,16.57
2018-09-12T20:52:53.370Z,16.71
2018-09-12T20:55:23.221Z,16.71
2018-09-12T20:57:56.958Z,16.64
2018-09-12T21:00:26.822Z,16.55
2018-09-12T21:02:56.667Z,16.55
2018-09-12T21:05:26.323Z,16.45
2018-09-12T21:07:56.033Z,16.51
2018-09-12T21:10:25.733Z,16.58
2018-09-12T21:12:55.582Z,16.60
2018-09-12T21:15:25.322Z,16.60
2018-09-12T21:17:55.023Z,16.57
2018-09-12T21:20:24.734Z,16.66
2018-09-12T21:22:54.566Z,16.66
2018-09-12T21:25:24.222Z,16.68
2018-09-12T21:27:54.110Z,16.85
2018-09-12T21:30:23.783Z,16.77
2018-09-12T21:32:54.501Z,16.80
2018-09-12T21:35:24.291Z,16.75
2018-09-12T21:37:54.144Z,16.79
2018-09-12T21:40:23.908Z,16.62
2018-09-12T21:42:53.843Z,16.50
2018-09-12T21:45:23.636Z,16.49
2018-09-12T21:47:53.356Z,16.47
2018-09-12T21:50:23.290Z,16.53
2018-09-12T21:52:53.149Z,16.61
2018-09-12T21:55:22.904Z,16.57
2018-09-12T21:57:52.673Z,16.56
2018-09-12T22:00:22.669Z,16.46
2018-09-12T22:02:52.397Z,16.48
2018-09-12T22:05:22.272Z,16.45
2018-09-12T22:07:52.129Z,16.53
2018-09-12T22:10:21.794Z,16.50
2018-09-12T22:12:51.594Z,16.53
2018-09-12T22:15:21.528Z,16.65
2018-09-12T22:17:51.229Z,16.57
2018-09-12T22:20:21.018Z,16.46
2018-09-12T22:22:50.860Z,16.40
2018-09-12T22:25:20.730Z,16.35
2018-09-12T22:27:50.450Z,16.39
2018-09-12T22:30:20.118Z,16.34
2018-09-12T22:32:49.928Z,16.41
2018-09-12T22:35:19.683Z,16.23
2018-09-12T22:37:49.400Z,16.21
2018-09-12T22:40:19.075Z,16.10
2018-09-12T22:42:48.761Z,16.17
2018-09-12T22:45:19.650Z,16.25
2018-09-12T22:47:49.379Z,16.26
2018-09-12T22:50:19.862Z,16.22
2018-09-12T22:52:49.616Z,16.24
2018-09-12T22:55:19.316Z,16.25
2018-09-12T22:57:49.104Z,16.31
2018-09-12T23:00:18.976Z,16.32
2018-09-12T23:02:48.644Z,16.37
2018-09-12T23:05:18.337Z,16.34
2018-09-12T23:07:48.062Z,16.43
2018-09-12T23:10:17.926Z,16.35
2018-09-12T23:12:47.908Z,16.29
2018-09-12T23:15:17.605Z,16.31
2018-09-12T23:17:47.420Z,16.29
2018-09-12T23:20:17.339Z,16.46
2018-09-12T23:22:47.310Z,16.30
2018-09-12T23:25:17.926Z,16.32
2018-09-12T23:27:47.596Z,16.22
2018-09-12T23:30:17.441Z,16.36
2018-09-12T23:32:47.419Z,16.36
2018-09-12T23:35:17.214Z,16.26
2018-09-12T23:37:46.888Z,16.26
2018-09-12T23:40:16.812Z,16.32
2018-09-12T23:42:46.461Z,16.18
2018-09-12T23:45:16.281Z,16.19
2018-09-12T23:47:46.147Z,16.35
2018-09-12T23:50:15.965Z,16.27
2018-09-12T23:52:46.222Z,16.26
2018-09-12T23:55:15.935Z,16.25
2018-09-12T23:57:45.634Z,16.33
